createdAt,value
2019-04-03T00:01:11.745Z,12.40
2019-04-03T00:03:40.231Z,12.40
2019-04-03T00:06:08.713Z,12.30
2019-04-03T00:08:56.476Z,12.30
2019-04-03T00:11:25.029Z,12.30
2019-04-03T00:13:53.471Z,12.10
2019-04-03T00:16:21.923Z,12.00
2019-04-03T00:18:50.428Z,11.80
2019-04-03T00:21:19.592Z,11.70
2019-04-03T00:23:48.740Z,11.50
2019-04-03T00:26:17.270Z,11.30
2019-04-03T00:28:45.748Z,11.20
2019-04-03T00:31:14.233Z,11.00
2019-04-03T00:33:42.897Z,10.90
2019-04-03T00:36:11.346Z,10.80
2019-04-03T00:38:39.809Z,10.70
2019-04-03T00:41:08.342Z,10.60
2019-04-03T00:43:36.922Z,10.60
2019-04-03T00:46:05.455Z,10.50
2019-04-03T00:48:34.007Z,10.40
2019-04-03T00:51:02.506Z,10.30
2019-04-03T00:53:30.974Z,10.30
2019-04-03T00:55:59.402Z,10.40
2019-04-03T00:58:44.328Z,10.40
2019-04-03T01:01:13.511Z,10.40
2019-04-03T01:03:41.985Z,10.40
2019-04-03T01:06:13.176Z,10.50
2019-04-03T01:08:41.826Z,10.60
2019-04-03T01:14:01.105Z,10.70
2019-04-03T01:16:29.550Z,10.80
2019-04-03T01:18:59.333Z,10.70
2019-04-03T01:21:27.899Z,10.70
2019-04-03T01:23:56.455Z,10.70
2019-04-03T01:26:24.928Z,10.90
2019-04-03T01:28:53.364Z,11.10
2019-04-03T01:31:21.819Z,11.30
2019-04-03T01:33:50.391Z,11.40
2019-04-03T01:36:18.845Z,11.50
2019-04-03T01:38:49.254Z,11.60
2019-04-03T01:41:18.904Z,11.70
2019-04-03T01:43:47.569Z,11.80
2019-04-03T01:46:15.985Z,11.70
2019-04-03T01:48:44.524Z,11.60
2019-04-03T01:51:12.922Z,11.70
2019-04-03T01:53:41.377Z,11.60
2019-04-03T01:56:09.811Z,11.50
2019-04-03T01:58:38.243Z,11.60
2019-04-03T02:01:08.044Z,11.60
2019-04-03T02:03:37.162Z,11.60
2019-04-03T02:06:05.809Z,11.50
2019-04-03T02:08:34.331Z,11.40
2019-04-03T02:11:02.920Z,11.40
2019-04-03T02:13:31.585Z,11.40
2019-04-03T02:16:00.237Z,11.50
2019-04-03T02:18:28.655Z,11.50
2019-04-03T02:20:57.697Z,11.60
2019-04-03T02:23:31.217Z,11.60
2019-04-03T02:25:58.985Z,11.60
2019-04-03T02:28:27.719Z,11.60
2019-04-03T02:30:56.191Z,11.60
2019-04-03T02:33:28.351Z,11.60
2019-04-03T02:35:54.893Z,11.70
2019-04-03T02:38:23.897Z,11.70
2019-04-03T02:40:52.655Z,11.60
2019-04-03T02:43:21.316Z,11.60
2019-04-03T02:45:49.816Z,11.60
2019-04-03T02:48:18.298Z,11.60
2019-04-03T02:50:49.757Z,11.60
2019-04-03T02:53:18.587Z,11.60
2019-04-03T02:55:47.400Z,11.60
2019-04-03T02:58:16.296Z,11.60
2019-04-03T03:00:44.987Z,11.50
2019-04-03T03:03:16.117Z,11.50
2019-04-03T03:05:43.663Z,11.50
2019-04-03T03:08:12.462Z,11.50
2019-04-03T03:10:41.013Z,11.50
2019-04-03T03:13:10.421Z,11.40
2019-04-03T03:15:41.606Z,11.40
2019-04-03T03:18:11.385Z,11.30
2019-04-03T03:20:41.008Z,11.30
2019-04-03T03:23:10.185Z,11.30
2019-04-03T03:25:38.969Z,11.30
2019-04-03T03:28:08.008Z,11.30
2019-04-03T03:30:45.292Z,11.30
2019-04-03T03:33:28.424Z,11.30
2019-04-03T03:35:43.721Z,11.30
2019-04-03T03:38:09.166Z,11.30
2019-04-03T03:40:38.245Z,11.30
2019-04-03T03:43:07.550Z,11.30
2019-04-03T03:45:37.063Z,11.30
2019-04-03T03:48:08.558Z,11.30
2019-04-03T03:50:36.949Z,11.30
2019-04-03T03:53:09.668Z,11.20
2019-04-03T03:55:37.581Z,11.20
2019-04-03T03:58:11.041Z,11.00
2019-04-03T04:00:37.717Z,10.90
2019-04-03T04:03:08.535Z,10.90
2019-04-03T04:05:36.579Z,10.90
2019-04-03T04:08:24.425Z,10.90
2019-04-03T04:10:53.410Z,10.80
2019-04-03T04:13:23.418Z,10.80
2019-04-03T04:15:51.993Z,10.80
2019-04-03T04:18:23.137Z,10.80
2019-04-03T04:20:52.658Z,10.90
2019-04-03T04:23:24.245Z,10.90
2019-04-03T04:25:51.579Z,10.90
2019-04-03T04:28:20.105Z,10.90
2019-04-03T04:30:49.663Z,10.90
2019-04-03T04:33:18.536Z,10.80
2019-04-03T04:35:47.338Z,10.70
2019-04-03T04:38:15.806Z,10.70
2019-04-03T04:40:44.369Z,10.60
2019-04-03T04:43:13.011Z,10.60
2019-04-03T04:45:42.690Z,10.50
2019-04-03T04:48:11.840Z,10.40
2019-04-03T04:50:40.333Z,10.40
2019-04-03T04:53:08.854Z,10.30
2019-04-03T04:55:37.480Z,10.30
2019-04-03T04:58:06.306Z,10.20
2019-04-03T05:00:35.020Z,10.20
2019-04-03T05:03:03.644Z,10.20
2019-04-03T05:05:32.396Z,10.10
2019-04-03T05:08:01.984Z,10.00
2019-04-03T05:10:31.335Z,10.10
2019-04-03T05:12:59.824Z,10.00
2019-04-03T05:15:28.267Z,10.00
2019-04-03T05:17:57.690Z,10.00
2019-04-03T05:20:26.700Z,10.00
2019-04-03T05:22:55.732Z,10.00
2019-04-03T05:25:24.687Z,9.90
2019-04-03T05:27:53.163Z,10.00
2019-04-03T05:30:30.460Z,10.00
2019-04-03T05:33:00.772Z,10.00
2019-04-03T05:35:29.309Z,9.90
2019-04-03T05:37:57.872Z,9.90
2019-04-03T05:40:26.721Z,10.00
2019-04-03T05:42:55.589Z,10.00
2019-04-03T05:45:24.102Z,10.10
2019-04-03T05:47:52.525Z,10.20
2019-04-03T05:50:21.023Z,10.30
2019-04-03T05:52:49.620Z,10.30
2019-04-03T05:55:18.078Z,10.20
2019-04-03T05:57:46.721Z,10.30
2019-04-03T06:00:15.692Z,10.20
2019-04-03T06:02:44.181Z,10.30
2019-04-03T06:05:13.286Z,10.40
2019-04-03T06:07:41.786Z,10.40
2019-04-03T06:10:11.026Z,10.40
2019-04-03T06:12:39.492Z,10.50
2019-04-03T06:15:10.139Z,10.50
2019-04-03T06:17:38.984Z,10.50
2019-04-03T06:20:11.203Z,10.70
2019-04-03T06:22:38.900Z,10.70
2019-04-03T06:25:12.262Z,10.80
2019-04-03T06:27:40.715Z,10.90
2019-04-03T06:30:08.645Z,11.00
2019-04-03T06:32:37.180Z,10.90
2019-04-03T06:35:06.319Z,11.10
2019-04-03T06:37:34.846Z,11.30
2019-04-03T06:40:06.318Z,11.40
2019-04-03T06:42:34.750Z,11.70
2019-04-03T06:45:04.212Z,11.90
2019-04-03T06:47:32.944Z,11.80
2019-04-03T06:50:01.652Z,11.80
2019-04-03T06:52:30.090Z,11.80
2019-04-03T06:54:58.543Z,11.80
2019-04-03T06:57:26.954Z,11.80
2019-04-03T06:59:55.633Z,11.70
2019-04-03T07:02:27.128Z,11.80
2019-04-03T07:04:54.511Z,11.70
2019-04-03T07:07:32.977Z,11.50
2019-04-03T07:09:53.442Z,11.50
2019-04-03T07:12:22.047Z,11.40
2019-04-03T07:14:50.831Z,11.50
2019-04-03T07:17:19.587Z,11.50
2019-04-03T07:19:48.059Z,11.60
2019-04-03T07:22:16.539Z,11.70
2019-04-03T07:24:44.951Z,11.70
2019-04-03T07:27:15.162Z,11.60
2019-04-03T07:29:44.007Z,11.50
2019-04-03T07:32:13.022Z,11.60
2019-04-03T07:34:42.135Z,11.60
2019-04-03T07:37:11.096Z,11.80
2019-04-03T07:39:39.923Z,12.00
2019-04-03T07:42:08.766Z,11.90
2019-04-03T07:44:40.097Z,12.00
2019-04-03T07:47:09.014Z,12.00
2019-04-03T07:49:41.166Z,12.10
2019-04-03T07:52:12.817Z,12.30
2019-04-03T07:54:40.009Z,12.40
2019-04-03T07:57:10.145Z,12.50
2019-04-03T07:59:38.797Z,12.40
2019-04-03T08:02:07.543Z,12.40
2019-04-03T08:04:35.986Z,12.30
2019-04-03T08:07:04.603Z,12.40
2019-04-03T08:09:33.133Z,12.40
2019-04-03T08:12:03.853Z,12.40
2019-04-03T08:14:31.850Z,12.50
2019-04-03T08:17:00.534Z,12.40
2019-04-03T08:19:28.980Z,12.30
2019-04-03T08:22:01.159Z,12.20
2019-04-03T08:24:27.933Z,12.10
2019-04-03T08:26:56.731Z,12.10
2019-04-03T08:29:25.311Z,12.00
2019-04-03T08:31:53.759Z,11.90
2019-04-03T08:34:22.381Z,11.90
2019-04-03T08:36:51.294Z,11.80
2019-04-03T08:39:19.819Z,11.70
2019-04-03T08:41:48.680Z,11.70
2019-04-03T08:44:18.200Z,11.60
2019-04-03T08:46:46.846Z,11.70
2019-04-03T08:49:15.371Z,11.40
2019-04-03T08:51:43.850Z,11.40
2019-04-03T08:54:12.521Z,11.20
2019-04-03T08:56:42.178Z,11.10
2019-04-03T08:59:12.844Z,11.10
2019-04-03T09:01:41.316Z,11.00
2019-04-03T09:04:11.374Z,10.90
2019-04-03T09:06:40.096Z,10.90
2019-04-03T09:09:10.915Z,10.90
2019-04-03T09:11:39.524Z,11.00
2019-04-03T09:14:08.502Z,11.00
2019-04-03T09:16:37.007Z,11.10
2019-04-03T09:19:05.570Z,11.20
2019-04-03T09:21:34.024Z,11.30
2019-04-03T09:24:02.713Z,10.80
2019-04-03T09:26:34.895Z,9.80
2019-04-03T09:29:01.443Z,9.30
2019-04-03T09:31:29.890Z,8.80
2019-04-03T09:33:58.637Z,8.50
2019-04-03T09:36:31.050Z,8.60
2019-04-03T09:38:59.467Z,8.70
2019-04-03T09:41:28.030Z,8.60
2019-04-03T09:43:56.774Z,8.80
2019-04-03T09:46:25.709Z,8.70
2019-04-03T09:48:54.229Z,8.90
2019-04-03T09:51:23.076Z,9.00
2019-04-03T09:53:51.783Z,9.00
2019-04-03T09:56:20.386Z,9.10
2019-04-03T09:58:49.487Z,9.00
2019-04-03T10:01:18.914Z,9.20
2019-04-03T10:03:47.626Z,9.10
2019-04-03T10:06:16.231Z,9.20
2019-04-03T10:08:44.861Z,9.10
2019-04-03T10:11:15.496Z,8.70
2019-04-03T10:13:43.888Z,8.50
2019-04-03T10:16:15.281Z,8.30
2019-04-03T10:18:43.017Z,8.30
2019-04-03T10:21:11.597Z,8.30
2019-04-03T10:23:40.018Z,8.20
2019-04-03T10:26:09.574Z,8.20
2019-04-03T10:28:41.901Z,8.20
2019-04-03T10:31:08.902Z,8.10
2019-04-03T10:33:37.465Z,8.10
2019-04-03T10:36:06.147Z,8.40
2019-04-03T10:38:34.855Z,8.80
2019-04-03T10:41:04.035Z,8.60
2019-04-03T10:43:32.643Z,8.20
2019-04-03T10:46:01.128Z,8.20
2019-04-03T10:48:29.990Z,8.20
2019-04-03T10:50:58.543Z,8.30
2019-04-03T10:53:26.981Z,8.50
2019-04-03T10:55:55.951Z,8.90
2019-04-03T10:58:24.675Z,8.80
2019-04-03T11:00:53.233Z,8.70
2019-04-03T11:03:21.745Z,9.10
2019-04-03T11:05:50.617Z,9.20
2019-04-03T11:08:19.393Z,9.80
2019-04-03T11:10:47.986Z,10.00
2019-04-03T11:13:16.609Z,9.90
2019-04-03T11:15:45.715Z,9.20
2019-04-03T11:18:14.205Z,9.00
2019-04-03T11:20:42.658Z,9.10
2019-04-03T11:23:11.236Z,9.20
2019-04-03T11:25:46.767Z,9.00
2019-04-03T11:28:16.139Z,9.10
2019-04-03T11:30:44.655Z,9.40
2019-04-03T11:33:13.988Z,9.90
2019-04-03T11:35:43.655Z,9.50
2019-04-03T11:38:16.952Z,9.60
2019-04-03T11:40:42.817Z,9.60
2019-04-03T11:43:11.363Z,9.50
2019-04-03T11:45:39.831Z,9.70
2019-04-03T11:48:08.369Z,10.10
2019-04-03T11:50:39.455Z,10.70
2019-04-03T11:53:07.765Z,11.40
2019-04-03T11:55:36.730Z,11.10
2019-04-03T11:58:05.770Z,10.50
2019-04-03T12:00:39.856Z,11.30
2019-04-03T12:03:10.790Z,11.60
2019-04-03T12:05:38.633Z,11.00
2019-04-03T12:08:07.463Z,10.90
2019-04-03T12:10:35.983Z,10.60
2019-04-03T12:13:04.987Z,10.30
2019-04-03T12:15:35.084Z,10.60
2019-04-03T12:18:03.882Z,10.50
2019-04-03T12:20:32.702Z,10.20
2019-04-03T12:23:01.589Z,10.80
2019-04-03T12:25:30.162Z,10.80
2019-04-03T12:27:58.846Z,10.40
2019-04-03T12:30:28.058Z,10.10
2019-04-03T12:33:00.007Z,9.80
2019-04-03T12:35:28.520Z,9.50
2019-04-03T12:37:57.164Z,9.50
2019-04-03T12:40:25.883Z,9.50
2019-04-03T12:42:54.646Z,9.60
2019-04-03T12:45:26.265Z,9.60
2019-04-03T12:47:53.375Z,9.80
2019-04-03T12:50:21.879Z,9.80
2019-04-03T12:52:50.618Z,9.40
2019-04-03T12:55:19.705Z,9.60
2019-04-03T12:57:48.315Z,9.70
2019-04-03T13:00:17.569Z,9.40
2019-04-03T13:02:45.999Z,9.40
2019-04-03T13:05:17.777Z,9.70
2019-04-03T13:07:47.468Z,10.10
2019-04-03T13:10:17.048Z,9.90
2019-04-03T13:12:46.044Z,9.40
2019-04-03T13:15:18.450Z,9.30
2019-04-03T13:17:46.986Z,9.60
2019-04-03T13:20:15.773Z,9.50
2019-04-03T13:22:44.425Z,10.10
2019-04-03T13:25:13.034Z,10.40
2019-04-03T13:27:41.827Z,10.20
2019-04-03T13:30:12.803Z,10.10
2019-04-03T13:32:41.806Z,10.20
2019-04-03T13:35:10.654Z,10.80
2019-04-03T13:37:39.127Z,11.10
2019-04-03T13:40:09.186Z,11.20
2019-04-03T13:42:37.762Z,10.80
2019-04-03T13:45:10.811Z,10.70
2019-04-03T13:47:43.556Z,10.10
2019-04-03T13:50:12.692Z,10.00
2019-04-03T13:52:47.051Z,10.00
2019-04-03T13:55:12.103Z,10.40
2019-04-03T13:57:40.787Z,10.60
2019-04-03T14:00:19.866Z,10.80
2019-04-03T14:02:44.924Z,10.60
2019-04-03T14:05:11.989Z,10.40
2019-04-03T14:07:41.803Z,10.40
2019-04-03T14:10:11.935Z,10.50
2019-04-03T14:12:44.349Z,10.60
2019-04-03T14:15:11.224Z,10.50
2019-04-03T14:17:39.801Z,10.70
2019-04-03T14:20:17.853Z,10.90
2019-04-03T14:22:46.608Z,10.80
2019-04-03T14:25:21.218Z,10.20
2019-04-03T14:27:45.748Z,10.00
2019-04-03T14:30:17.733Z,9.70
2019-04-03T14:32:46.558Z,9.80
2019-04-03T14:35:44.602Z,9.90
2019-04-03T14:37:45.704Z,9.90
2019-04-03T14:40:14.517Z,10.00
2019-04-03T14:42:43.233Z,9.90
2019-04-03T14:45:14.428Z,9.60
2019-04-03T14:47:42.282Z,9.50
2019-04-03T14:50:11.591Z,9.40
2019-04-03T14:52:40.045Z,9.30
2019-04-03T14:55:17.902Z,9.30
2019-04-03T14:57:39.398Z,9.30
2019-04-03T15:00:24.786Z,9.20
2019-04-03T15:02:41.545Z,9.10
2019-04-03T15:05:10.847Z,9.10
2019-04-03T15:07:40.435Z,9.10
2019-04-03T15:10:09.699Z,8.90
2019-04-03T15:12:39.757Z,8.90
2019-04-03T15:15:09.687Z,9.10
2019-04-03T15:17:44.468Z,9.00
2019-04-03T15:20:19.198Z,8.80
2019-04-03T15:22:48.367Z,8.80
2019-04-03T15:25:19.534Z,8.70
2019-04-03T15:27:47.198Z,8.60
2019-04-03T15:30:17.882Z,8.60
2019-04-03T15:32:47.018Z,8.60
2019-04-03T15:35:15.923Z,8.60
2019-04-03T15:37:44.552Z,8.50
2019-04-03T15:40:14.094Z,8.40
2019-04-03T15:42:42.555Z,8.40
2019-04-03T15:45:11.459Z,8.30
2019-04-03T15:47:45.066Z,8.30
2019-04-03T15:50:12.843Z,8.30
2019-04-03T15:52:43.954Z,8.30
2019-04-03T15:55:14.180Z,8.20
2019-04-03T15:57:42.759Z,8.00
2019-04-03T16:00:13.677Z,8.00
2019-04-03T16:02:45.128Z,7.90
2019-04-03T16:05:13.422Z,8.00
2019-04-03T16:07:42.639Z,8.00
2019-04-03T16:10:11.857Z,7.80
2019-04-03T16:12:42.900Z,7.70
2019-04-03T16:15:11.042Z,7.70
2019-04-03T16:17:39.870Z,7.80
2019-04-03T16:20:09.520Z,7.80
2019-04-03T16:22:49.217Z,7.70
2019-04-03T16:25:18.519Z,7.60
2019-04-03T16:27:47.537Z,7.50
2019-04-03T16:30:18.578Z,7.50
2019-04-03T16:32:47.001Z,7.60
2019-04-03T16:35:16.674Z,7.50
2019-04-03T16:37:46.487Z,7.50
2019-04-03T16:40:16.306Z,7.40
2019-04-03T16:42:47.445Z,7.40
2019-04-03T16:45:20.764Z,7.30
2019-04-03T16:47:50.452Z,7.30
2019-04-03T16:50:21.396Z,7.30
2019-04-03T16:52:50.693Z,7.30
2019-04-03T16:55:19.332Z,7.20
2019-04-03T16:57:48.075Z,7.20
2019-04-03T17:00:16.946Z,7.10
2019-04-03T17:02:45.533Z,7.10
2019-04-03T17:05:14.528Z,7.10
2019-04-03T17:07:43.170Z,6.80
2019-04-03T17:10:12.256Z,6.90
2019-04-03T17:12:40.873Z,6.90
2019-04-03T17:15:10.637Z,6.90
2019-04-03T17:17:39.964Z,6.80
2019-04-03T17:20:16.199Z,6.70
2019-04-03T17:22:46.614Z,6.70
2019-04-03T17:25:15.391Z,6.70
2019-04-03T17:27:54.157Z,6.80
2019-04-03T17:30:18.080Z,6.60
2019-04-03T17:32:46.286Z,6.60
2019-04-03T17:35:15.710Z,6.60
2019-04-03T17:37:44.919Z,6.60
2019-04-03T17:40:16.807Z,6.60
2019-04-03T17:42:45.464Z,6.60
2019-04-03T17:45:16.296Z,6.60
2019-04-03T17:47:46.095Z,6.60
2019-04-03T17:50:15.635Z,6.60
2019-04-03T17:52:45.148Z,6.60
2019-04-03T17:55:13.940Z,6.70
2019-04-03T17:57:45.294Z,6.70
2019-04-03T18:00:20.629Z,6.60
2019-04-03T18:02:48.290Z,6.70
2019-04-03T18:05:16.907Z,6.60
2019-04-03T18:07:45.535Z,6.60
2019-04-03T18:10:14.452Z,6.60
2019-04-03T18:12:45.479Z,6.60
2019-04-03T18:15:13.474Z,6.60
2019-04-03T18:17:42.071Z,6.70
2019-04-03T18:20:13.329Z,6.70
2019-04-03T18:22:42.120Z,6.60
2019-04-03T18:25:10.951Z,6.60
2019-04-03T18:27:41.302Z,6.60
2019-04-03T18:30:11.992Z,6.60
2019-04-03T18:32:41.306Z,6.60
2019-04-03T18:35:11.099Z,6.60
2019-04-03T18:37:41.510Z,6.50
2019-04-03T18:40:14.290Z,6.60
2019-04-03T18:42:42.311Z,6.50
2019-04-03T18:45:24.136Z,6.50
2019-04-03T18:47:42.055Z,6.50
2019-04-03T18:50:11.757Z,6.50
2019-04-03T18:52:40.399Z,6.50
2019-04-03T18:55:09.223Z,6.60
2019-04-03T18:57:57.347Z,6.50
2019-04-03T19:00:25.851Z,6.50
2019-04-03T19:02:54.520Z,6.50
2019-04-03T19:05:23.401Z,6.50
2019-04-03T19:07:51.956Z,6.50
2019-04-03T19:10:22.880Z,6.50
2019-04-03T19:12:51.420Z,6.50
2019-04-03T19:15:20.040Z,6.50
2019-04-03T19:17:59.459Z,6.40
2019-04-03T19:20:19.059Z,6.40
2019-04-03T19:22:47.585Z,6.40
2019-04-03T19:25:16.237Z,6.40
2019-04-03T19:27:44.754Z,6.50
2019-04-03T19:30:13.542Z,6.40
2019-04-03T19:32:43.251Z,6.30
2019-04-03T19:35:12.635Z,6.40
2019-04-03T19:37:41.292Z,6.50
2019-04-03T19:40:10.603Z,6.60
2019-04-03T19:42:39.361Z,6.60
2019-04-03T19:45:08.677Z,6.60
2019-04-03T19:47:37.413Z,6.80
2019-04-03T19:50:07.848Z,6.70
2019-04-03T19:52:37.345Z,6.70
2019-04-03T19:55:08.186Z,6.60
2019-04-03T19:57:36.753Z,6.60
2019-04-03T20:00:26.195Z,6.60
2019-04-03T20:02:54.731Z,6.60
2019-04-03T20:05:23.423Z,6.50
2019-04-03T20:07:51.898Z,6.60
2019-04-03T20:10:20.406Z,6.30
2019-04-03T20:12:49.191Z,6.50
2019-04-03T20:15:17.734Z,6.50
2019-04-03T20:17:47.700Z,6.50
2019-04-03T20:20:16.251Z,6.60
2019-04-03T20:22:46.331Z,6.50
2019-04-03T20:25:23.579Z,6.50
2019-04-03T20:27:52.471Z,6.50
2019-04-03T20:30:21.119Z,6.50
2019-04-03T20:32:49.630Z,6.30
2019-04-03T20:35:37.539Z,6.10
2019-04-03T20:38:06.097Z,6.20
2019-04-03T20:40:34.580Z,6.10
2019-04-03T20:43:03.076Z,6.20
2019-04-03T20:45:31.495Z,6.20
2019-04-03T20:48:01.487Z,6.20
2019-04-03T20:50:29.940Z,6.20
2019-04-03T20:53:04.343Z,6.20
2019-04-03T20:55:32.918Z,6.20
2019-04-03T20:58:01.466Z,6.20
2019-04-03T21:00:29.915Z,6.20
2019-04-03T21:02:58.332Z,6.10
2019-04-03T21:05:26.771Z,6.10
2019-04-03T21:07:55.832Z,6.10
2019-04-03T21:10:24.932Z,6.10
2019-04-03T21:12:53.501Z,6.10
2019-04-03T21:15:22.113Z,6.10
2019-04-03T21:17:50.631Z,6.10
2019-04-03T21:20:21.877Z,6.10
2019-04-03T21:22:49.959Z,6.00
2019-04-03T21:25:18.485Z,6.00
2019-04-03T21:28:06.360Z,6.00
2019-04-03T21:30:34.846Z,6.00
2019-04-03T21:33:03.357Z,6.10
2019-04-03T21:35:34.898Z,6.00
2019-04-03T21:38:01.977Z,6.00
2019-04-03T21:40:30.525Z,6.00
2019-04-03T21:42:59.090Z,6.00
2019-04-03T21:45:27.575Z,6.00
2019-04-03T21:47:56.051Z,5.90
2019-04-03T21:50:27.461Z,5.90
2019-04-03T21:52:55.935Z,5.80
2019-04-03T21:55:31.039Z,5.80
2019-04-03T21:58:00.165Z,5.80
2019-04-03T22:00:52.407Z,5.90
2019-04-03T22:03:20.963Z,5.90
2019-04-03T22:05:49.435Z,5.90
2019-04-03T22:08:17.940Z,5.80
2019-04-03T22:10:46.438Z,5.90
2019-04-03T22:13:14.898Z,5.80
2019-04-03T22:15:45.342Z,5.70
2019-04-03T22:18:13.718Z,5.80
2019-04-03T22:20:42.186Z,5.70
2019-04-03T22:23:10.670Z,5.80
2019-04-03T22:25:39.459Z,5.90
2019-04-03T22:28:08.388Z,5.90
2019-04-03T22:30:36.853Z,5.90
2019-04-03T22:33:05.340Z,6.00
2019-04-03T22:35:34.092Z,6.00
2019-04-03T22:38:05.517Z,6.00
2019-04-03T22:40:34.543Z,5.80
2019-04-03T22:43:04.453Z,5.80
2019-04-03T22:45:32.931Z,5.80
2019-04-03T22:48:05.758Z,5.90
2019-04-03T22:50:35.402Z,5.90
2019-04-03T22:53:04.347Z,5.80
2019-04-03T22:55:32.853Z,5.80
2019-04-03T22:58:01.569Z,5.80
2019-04-03T23:00:30.685Z,5.70
2019-04-03T23:02:59.137Z,5.70
2019-04-03T23:05:27.560Z,5.70
2019-04-03T23:07:56.116Z,5.70
2019-04-03T23:10:24.683Z,5.70
2019-04-03T23:12:53.592Z,5.70
2019-04-03T23:15:22.031Z,5.60
2019-04-03T23:17:50.530Z,5.60
2019-04-03T23:20:20.153Z,5.60
2019-04-03T23:22:49.591Z,5.60
2019-04-03T23:25:18.380Z,5.60
2019-04-03T23:27:46.853Z,5.60
2019-04-03T23:30:16.143Z,5.60
2019-04-03T23:32:46.107Z,5.60
2019-04-03T23:35:14.944Z,5.60
2019-04-03T23:37:43.416Z,5.60
2019-04-03T23:40:12.502Z,5.60
2019-04-03T23:42:40.956Z,5.50
2019-04-03T23:45:11.026Z,5.50
2019-04-03T23:47:39.817Z,5.50
2019-04-03T23:50:08.315Z,5.60
2019-04-03T23:52:36.761Z,5.60
2019-04-03T23:55:06.309Z,5.60
2019-04-03T23:57:34.889Z,5.50
